sensor_id;sensor_type;location;lat;lon;timestamp;P1;durP1;ratioP1;P2;durP2;ratioP2
72319;SDS011;60269;52.502;16.732;2023-11-19T00:00:31;47.28;;;15.85;;
72319;SDS011;60269;52.502;16.732;2023-11-19T00:04:23;46.30;;;15.90;;
72319;SDS011;60269;52.502;16.732;2023-11-19T00:07:55;44.67;;;15.07;;
72319;SDS011;60269;52.502;16.732;2023-11-19T00:11:27;44.08;;;14.57;;
72319;SDS011;60269;52.502;16.732;2023-11-19T00:14:59;46.28;;;14.23;;
72319;SDS011;60269;52.502;16.732;2023-11-19T00:18:31;39.23;;;13.07;;
72319;SDS011;60269;52.502;16.732;2023-11-19T00:22:04;44.72;;;15.45;;
72319;SDS011;60269;52.502;16.732;2023-11-19T00:25:36;45.90;;;15.93;;
72319;SDS011;60269;52.502;16.732;2023-11-19T00:29:10;38.27;;;13.17;;
72319;SDS011;60269;52.502;16.732;2023-11-19T00:32:46;41.35;;;14.13;;
72319;SDS011;60269;52.502;16.732;2023-11-19T00:36:18;48.42;;;15.82;;
72319;SDS011;60269;52.502;16.732;2023-11-19T00:39:49;39.40;;;14.75;;
72319;SDS011;60269;52.502;16.732;2023-11-19T00:43:23;41.70;;;14.67;;
72319;SDS011;60269;52.502;16.732;2023-11-19T00:46:56;47.90;;;16.05;;
72319;SDS011;60269;52.502;16.732;2023-11-19T00:50:28;47.25;;;15.77;;
72319;SDS011;60269;52.502;16.732;2023-11-19T00:54:06;45.10;;;16.70;;
72319;SDS011;60269;52.502;16.732;2023-11-19T00:57:38;40.22;;;15.70;;
72319;SDS011;60269;52.502;16.732;2023-11-19T01:01:11;49.35;;;16.67;;
72319;SDS011;60269;52.502;16.732;2023-11-19T01:04:43;50.77;;;17.43;;
72319;SDS011;60269;52.502;16.732;2023-11-19T01:08:16;47.05;;;15.18;;
72319;SDS011;60269;52.502;16.732;2023-11-19T01:11:47;43.47;;;15.15;;
72319;SDS011;60269;52.502;16.732;2023-11-19T01:15:20;46.47;;;16.83;;
72319;SDS011;60269;52.502;16.732;2023-11-19T01:18:52;51.57;;;16.90;;
72319;SDS011;60269;52.502;16.732;2023-11-19T01:22:40;38.72;;;14.20;;
72319;SDS011;60269;52.502;16.732;2023-11-19T01:26:12;45.92;;;15.43;;
72319;SDS011;60269;52.502;16.732;2023-11-19T01:29:45;42.73;;;16.33;;
72319;SDS011;60269;52.502;16.732;2023-11-19T01:33:16;43.00;;;15.30;;
72319;SDS011;60269;52.502;16.732;2023-11-19T01:36:49;48.25;;;17.13;;
72319;SDS011;60269;52.502;16.732;2023-11-19T01:40:21;41.80;;;14.40;;
72319;SDS011;60269;52.502;16.732;2023-11-19T01:43:53;46.35;;;14.57;;
72319;SDS011;60269;52.502;16.732;2023-11-19T01:47:26;40.55;;;13.02;;
72319;SDS011;60269;52.502;16.732;2023-11-19T01:51:01;48.22;;;15.88;;
72319;SDS011;60269;52.502;16.732;2023-11-19T01:54:34;41.80;;;15.13;;
72319;SDS011;60269;52.502;16.732;2023-11-19T01:58:06;43.28;;;15.05;;
72319;SDS011;60269;52.502;16.732;2023-11-19T02:01:39;44.28;;;17.33;;
72319;SDS011;60269;52.502;16.732;2023-11-19T02:05:12;44.17;;;16.63;;
72319;SDS011;60269;52.502;16.732;2023-11-19T02:08:45;46.15;;;15.82;;
72319;SDS011;60269;52.502;16.732;2023-11-19T02:12:17;42.72;;;14.75;;
72319;SDS011;60269;52.502;16.732;2023-11-19T02:15:49;48.60;;;17.17;;
72319;SDS011;60269;52.502;16.732;2023-11-19T02:19:21;47.40;;;17.30;;
72319;SDS011;60269;52.502;16.732;2023-11-19T02:22:53;45.85;;;15.73;;
72319;SDS011;60269;52.502;16.732;2023-11-19T02:26:27;44.42;;;16.20;;
72319;SDS011;60269;52.502;16.732;2023-11-19T02:30:04;45.67;;;15.93;;
72319;SDS011;60269;52.502;16.732;2023-11-19T02:33:40;52.95;;;17.17;;
72319;SDS011;60269;52.502;16.732;2023-11-19T02:37:12;49.92;;;17.23;;
72319;SDS011;60269;52.502;16.732;2023-11-19T02:40:44;52.60;;;16.70;;
72319;SDS011;60269;52.502;16.732;2023-11-19T02:44:16;52.03;;;17.95;;
72319;SDS011;60269;52.502;16.732;2023-11-19T02:47:49;45.20;;;14.93;;
72319;SDS011;60269;52.502;16.732;2023-11-19T02:51:21;51.33;;;17.97;;
72319;SDS011;60269;52.502;16.732;2023-11-19T02:54:53;47.85;;;16.58;;
72319;SDS011;60269;52.502;16.732;2023-11-19T02:58:25;58.03;;;18.15;;
72319;SDS011;60269;52.502;16.732;2023-11-19T03:01:59;47.15;;;16.75;;
72319;SDS011;60269;52.502;16.732;2023-11-19T03:05:31;43.97;;;16.10;;
72319;SDS011;60269;52.502;16.732;2023-11-19T03:09:03;53.50;;;17.90;;
72319;SDS011;60269;52.502;16.732;2023-11-19T03:12:42;44.78;;;16.85;;
72319;SDS011;60269;52.502;16.732;2023-11-19T03:16:17;49.73;;;17.30;;
72319;SDS011;60269;52.502;16.732;2023-11-19T03:19:49;58.33;;;19.15;;
72319;SDS011;60269;52.502;16.732;2023-11-19T03:23:21;42.85;;;17.15;;
72319;SDS011;60269;52.502;16.732;2023-11-19T03:26:54;46.60;;;16.30;;
72319;SDS011;60269;52.502;16.732;2023-11-19T03:30:26;58.90;;;19.40;;
72319;SDS011;60269;52.502;16.732;2023-11-19T03:34:01;48.80;;;17.05;;
72319;SDS011;60269;52.502;16.732;2023-11-19T03:37:34;48.55;;;15.38;;
72319;SDS011;60269;52.502;16.732;2023-11-19T03:41:13;54.13;;;19.00;;
72319;SDS011;60269;52.502;16.732;2023-11-19T03:44:46;47.90;;;16.15;;
72319;SDS011;60269;52.502;16.732;2023-11-19T03:48:20;54.50;;;16.92;;
72319;SDS011;60269;52.502;16.732;2023-11-19T03:51:52;53.17;;;17.80;;
72319;SDS011;60269;52.502;16.732;2023-11-19T03:55:24;49.35;;;17.30;;
72319;SDS011;60269;52.502;16.732;2023-11-19T03:58:56;46.10;;;14.90;;
72319;SDS011;60269;52.502;16.732;2023-11-19T04:02:28;48.00;;;14.63;;
72319;SDS011;60269;52.502;16.732;2023-11-19T04:06:00;52.20;;;16.50;;
72319;SDS011;60269;52.502;16.732;2023-11-19T04:09:32;46.90;;;17.73;;
72319;SDS011;60269;52.502;16.732;2023-11-19T04:13:04;56.00;;;16.65;;
72319;SDS011;60269;52.502;16.732;2023-11-19T04:16:37;53.13;;;17.47;;
72319;SDS011;60269;52.502;16.732;2023-11-19T04:20:09;52.80;;;16.67;;
72319;SDS011;60269;52.502;16.732;2023-11-19T04:23:46;52.50;;;17.52;;
72319;SDS011;60269;52.502;16.732;2023-11-19T04:27:18;54.10;;;16.93;;
72319;SDS011;60269;52.502;16.732;2023-11-19T04:30:50;60.47;;;18.98;;
72319;SDS011;60269;52.502;16.732;2023-11-19T04:34:22;53.28;;;17.17;;
72319;SDS011;60269;52.502;16.732;2023-11-19T04:37:54;56.37;;;17.87;;
72319;SDS011;60269;52.502;16.732;2023-11-19T04:41:29;63.83;;;18.77;;
72319;SDS011;60269;52.502;16.732;2023-11-19T04:45:01;52.10;;;17.77;;
72319;SDS011;60269;52.502;16.732;2023-11-19T04:48:33;49.63;;;17.52;;
72319;SDS011;60269;52.502;16.732;2023-11-19T04:52:08;46.43;;;17.87;;
72319;SDS011;60269;52.502;16.732;2023-11-19T04:55:41;50.03;;;17.10;;
72319;SDS011;60269;52.502;16.732;2023-11-19T04:59:13;52.83;;;18.40;;
72319;SDS011;60269;52.502;16.732;2023-11-19T05:02:45;51.73;;;17.37;;
72319;SDS011;60269;52.502;16.732;2023-11-19T05:06:17;49.08;;;17.05;;
72319;SDS011;60269;52.502;16.732;2023-11-19T05:09:49;48.42;;;16.23;;
72319;SDS011;60269;52.502;16.732;2023-11-19T05:13:21;53.57;;;16.03;;
72319;SDS011;60269;52.502;16.732;2023-11-19T05:16:54;45.28;;;15.30;;
72319;SDS011;60269;52.502;16.732;2023-11-19T05:20:26;48.30;;;16.13;;
72319;SDS011;60269;52.502;16.732;2023-11-19T05:23:59;47.83;;;14.63;;
72319;SDS011;60269;52.502;16.732;2023-11-19T05:27:31;41.30;;;14.57;;
72319;SDS011;60269;52.502;16.732;2023-11-19T05:31:03;47.15;;;14.30;;
72319;SDS011;60269;52.502;16.732;2023-11-19T05:34:35;43.70;;;15.63;;
72319;SDS011;60269;52.502;16.732;2023-11-19T05:38:07;44.20;;;14.63;;
72319;SDS011;60269;52.502;16.732;2023-11-19T05:41:39;37.90;;;14.40;;
72319;SDS011;60269;52.502;16.732;2023-11-19T05:45:12;39.10;;;14.40;;
72319;SDS011;60269;52.502;16.732;2023-11-19T05:48:44;39.43;;;13.87;;
72319;SDS011;60269;52.502;16.732;2023-11-19T05:52:18;43.05;;;13.50;;
72319;SDS011;60269;52.502;16.732;2023-11-19T05:55:50;41.50;;;13.75;;
72319;SDS011;60269;52.502;16.732;2023-11-19T05:59:29;36.90;;;12.70;;
72319;SDS011;60269;52.502;16.732;2023-11-19T06:03:01;35.40;;;12.23;;
72319;SDS011;60269;52.502;16.732;2023-11-19T06:06:33;38.88;;;12.63;;
72319;SDS011;60269;52.502;16.732;2023-11-19T06:10:06;42.70;;;13.82;;
72319;SDS011;60269;52.502;16.732;2023-11-19T06:13:38;37.23;;;12.33;;
72319;SDS011;60269;52.502;16.732;2023-11-19T06:17:10;34.13;;;12.25;;
72319;SDS011;60269;52.502;16.732;2023-11-19T06:20:42;42.75;;;12.88;;
72319;SDS011;60269;52.502;16.732;2023-11-19T06:24:15;47.73;;;14.47;;
72319;SDS011;60269;52.502;16.732;2023-11-19T06:27:47;32.50;;;11.13;;
72319;SDS011;60269;52.502;16.732;2023-11-19T06:31:19;36.85;;;13.20;;
72319;SDS011;60269;52.502;16.732;2023-11-19T06:34:51;32.05;;;11.55;;
72319;SDS011;60269;52.502;16.732;2023-11-19T06:38:23;42.80;;;11.67;;
72319;SDS011;60269;52.502;16.732;2023-11-19T06:41:56;38.20;;;12.82;;
72319;SDS011;60269;52.502;16.732;2023-11-19T06:45:28;31.02;;;11.45;;
72319;SDS011;60269;52.502;16.732;2023-11-19T06:49:00;34.87;;;11.63;;
72319;SDS011;60269;52.502;16.732;2023-11-19T06:52:31;32.67;;;12.13;;
72319;SDS011;60269;52.502;16.732;2023-11-19T06:56:04;36.83;;;12.45;;
72319;SDS011;60269;52.502;16.732;2023-11-19T06:59:38;36.20;;;13.60;;
72319;SDS011;60269;52.502;16.732;2023-11-19T07:03:10;38.33;;;13.18;;
72319;SDS011;60269;52.502;16.732;2023-11-19T07:06:42;40.75;;;12.05;;
72319;SDS011;60269;52.502;16.732;2023-11-19T07:10:14;34.63;;;11.65;;
72319;SDS011;60269;52.502;16.732;2023-11-19T07:13:47;34.77;;;12.47;;
72319;SDS011;60269;52.502;16.732;2023-11-19T07:17:19;39.53;;;12.45;;
72319;SDS011;60269;52.502;16.732;2023-11-19T07:20:51;35.28;;;11.90;;
72319;SDS011;60269;52.502;16.732;2023-11-19T07:24:23;44.93;;;14.00;;
72319;SDS011;60269;52.502;16.732;2023-11-19T07:27:56;37.10;;;13.20;;
72319;SDS011;60269;52.502;16.732;2023-11-19T07:31:28;39.40;;;12.65;;
72319;SDS011;60269;52.502;16.732;2023-11-19T07:35:00;40.57;;;12.37;;
72319;SDS011;60269;52.502;16.732;2023-11-19T07:38:32;38.65;;;13.60;;
72319;SDS011;60269;52.502;16.732;2023-11-19T07:42:04;31.27;;;11.93;;
72319;SDS011;60269;52.502;16.732;2023-11-19T07:45:37;37.50;;;12.77;;
72319;SDS011;60269;52.502;16.732;2023-11-19T07:49:08;36.77;;;13.87;;
72319;SDS011;60269;52.502;16.732;2023-11-19T07:52:42;35.15;;;12.23;;
72319;SDS011;60269;52.502;16.732;2023-11-19T07:56:14;34.60;;;11.32;;
72319;SDS011;60269;52.502;16.732;2023-11-19T07:59:46;35.70;;;11.23;;
72319;SDS011;60269;52.502;16.732;2023-11-19T08:03:18;32.00;;;9.98;;
72319;SDS011;60269;52.502;16.732;2023-11-19T08:06:51;34.40;;;11.68;;
72319;SDS011;60269;52.502;16.732;2023-11-19T08:10:26;29.37;;;9.43;;
72319;SDS011;60269;52.502;16.732;2023-11-19T08:13:58;32.88;;;10.63;;
72319;SDS011;60269;52.502;16.732;2023-11-19T08:17:30;31.73;;;10.68;;
72319;SDS011;60269;52.502;16.732;2023-11-19T08:21:02;23.80;;;10.40;;
72319;SDS011;60269;52.502;16.732;2023-11-19T08:24:36;30.37;;;10.63;;
72319;SDS011;60269;52.502;16.732;2023-11-19T08:28:08;26.52;;;9.40;;
72319;SDS011;60269;52.502;16.732;2023-11-19T08:31:40;30.98;;;10.75;;
72319;SDS011;60269;52.502;16.732;2023-11-19T08:35:12;32.07;;;10.43;;
72319;SDS011;60269;52.502;16.732;2023-11-19T08:38:44;30.20;;;10.27;;
72319;SDS011;60269;52.502;16.732;2023-11-19T08:42:17;29.00;;;10.35;;
72319;SDS011;60269;52.502;16.732;2023-11-19T08:45:48;28.13;;;10.23;;
72319;SDS011;60269;52.502;16.732;2023-11-19T08:49:20;25.85;;;8.65;;
72319;SDS011;60269;52.502;16.732;2023-11-19T08:52:52;27.52;;;8.75;;
72319;SDS011;60269;52.502;16.732;2023-11-19T08:56:24;28.55;;;9.38;;
72319;SDS011;60269;52.502;16.732;2023-11-19T08:59:56;28.33;;;9.70;;
72319;SDS011;60269;52.502;16.732;2023-11-19T09:03:30;24.83;;;8.93;;
72319;SDS011;60269;52.502;16.732;2023-11-19T09:07:03;28.85;;;9.85;;
72319;SDS011;60269;52.502;16.732;2023-11-19T09:10:35;27.70;;;8.83;;
72319;SDS011;60269;52.502;16.732;2023-11-19T09:14:07;27.60;;;10.02;;
72319;SDS011;60269;52.502;16.732;2023-11-19T09:17:39;27.00;;;8.23;;
72319;SDS011;60269;52.502;16.732;2023-11-19T09:21:12;28.27;;;10.37;;
72319;SDS011;60269;52.502;16.732;2023-11-19T09:24:44;25.52;;;8.82;;
72319;SDS011;60269;52.502;16.732;2023-11-19T09:28:17;26.02;;;9.23;;
72319;SDS011;60269;52.502;16.732;2023-11-19T09:31:48;25.73;;;9.10;;
72319;SDS011;60269;52.502;16.732;2023-11-19T09:35:20;24.93;;;8.77;;
72319;SDS011;60269;52.502;16.732;2023-11-19T09:38:52;26.20;;;8.82;;
72319;SDS011;60269;52.502;16.732;2023-11-19T09:42:24;23.73;;;8.95;;
72319;SDS011;60269;52.502;16.732;2023-11-19T09:45:56;27.23;;;9.87;;
72319;SDS011;60269;52.502;16.732;2023-11-19T09:49:30;29.45;;;9.88;;
72319;SDS011;60269;52.502;16.732;2023-11-19T09:53:05;28.40;;;9.45;;
72319;SDS011;60269;52.502;16.732;2023-11-19T09:56:37;23.73;;;8.30;;
72319;SDS011;60269;52.502;16.732;2023-11-19T10:00:11;28.00;;;9.52;;
72319;SDS011;60269;52.502;16.732;2023-11-19T10:03:47;27.00;;;9.93;;
72319;SDS011;60269;52.502;16.732;2023-11-19T10:07:21;28.17;;;9.20;;
72319;SDS011;60269;52.502;16.732;2023-11-19T10:10:57;22.50;;;9.07;;
72319;SDS011;60269;52.502;16.732;2023-11-19T10:14:31;22.65;;;8.15;;
72319;SDS011;60269;52.502;16.732;2023-11-19T10:18:03;24.88;;;8.40;;
72319;SDS011;60269;52.502;16.732;2023-11-19T10:21:38;23.27;;;8.43;;
72319;SDS011;60269;52.502;16.732;2023-11-19T10:25:23;25.45;;;8.07;;
72319;SDS011;60269;52.502;16.732;2023-11-19T10:28:56;21.15;;;7.60;;
72319;SDS011;60269;52.502;16.732;2023-11-19T10:32:28;26.67;;;9.00;;
72319;SDS011;60269;52.502;16.732;2023-11-19T10:36:04;25.75;;;7.88;;
72319;SDS011;60269;52.502;16.732;2023-11-19T10:39:52;18.83;;;7.40;;
72319;SDS011;60269;52.502;16.732;2023-11-19T10:43:28;20.25;;;7.38;;
72319;SDS011;60269;52.502;16.732;2023-11-19T10:47:00;25.40;;;8.00;;
72319;SDS011;60269;52.502;16.732;2023-11-19T10:50:36;22.17;;;8.18;;
72319;SDS011;60269;52.502;16.732;2023-11-19T10:54:09;21.42;;;7.35;;
72319;SDS011;60269;52.502;16.732;2023-11-19T10:57:43;21.67;;;7.77;;
72319;SDS011;60269;52.502;16.732;2023-11-19T11:01:19;20.33;;;7.68;;
72319;SDS011;60269;52.502;16.732;2023-11-19T11:04:55;20.23;;;6.35;;
72319;SDS011;60269;52.502;16.732;2023-11-19T11:08:28;15.73;;;5.63;;
72319;SDS011;60269;52.502;16.732;2023-11-19T11:12:02;18.40;;;7.10;;
72319;SDS011;60269;52.502;16.732;2023-11-19T11:15:36;19.95;;;7.15;;
72319;SDS011;60269;52.502;16.732;2023-11-19T11:19:10;18.33;;;7.03;;
72319;SDS011;60269;52.502;16.732;2023-11-19T11:22:54;14.97;;;5.10;;
72319;SDS011;60269;52.502;16.732;2023-11-19T11:38:08;21.38;;;7.50;;
72319;SDS011;60269;52.502;16.732;2023-11-19T11:41:40;22.35;;;7.65;;
72319;SDS011;60269;52.502;16.732;2023-11-19T11:45:13;24.60;;;8.47;;
72319;SDS011;60269;52.502;16.732;2023-11-19T11:48:46;23.20;;;9.20;;
72319;SDS011;60269;52.502;16.732;2023-11-19T11:52:21;24.20;;;8.73;;
72319;SDS011;60269;52.502;16.732;2023-11-19T11:55:53;20.83;;;8.82;;
72319;SDS011;60269;52.502;16.732;2023-11-19T11:59:42;25.00;;;8.67;;
72319;SDS011;60269;52.502;16.732;2023-11-19T12:03:14;23.80;;;8.50;;
72319;SDS011;60269;52.502;16.732;2023-11-19T12:07:02;25.15;;;9.18;;
72319;SDS011;60269;52.502;16.732;2023-11-19T12:10:56;25.13;;;8.83;;
72319;SDS011;60269;52.502;16.732;2023-11-19T12:18:32;24.30;;;8.40;;
72319;SDS011;60269;52.502;16.732;2023-11-19T12:22:09;31.77;;;10.47;;
72319;SDS011;60269;52.502;16.732;2023-11-19T12:25:42;26.05;;;9.57;;
72319;SDS011;60269;52.502;16.732;2023-11-19T12:29:17;29.60;;;10.77;;
72319;SDS011;60269;52.502;16.732;2023-11-19T12:32:49;31.02;;;12.13;;
72319;SDS011;60269;52.502;16.732;2023-11-19T12:36:21;34.23;;;11.77;;
72319;SDS011;60269;52.502;16.732;2023-11-19T12:39:54;26.65;;;10.15;;
72319;SDS011;60269;52.502;16.732;2023-11-19T12:43:26;27.63;;;10.90;;
72319;SDS011;60269;52.502;16.732;2023-11-19T12:47:04;29.27;;;10.27;;
72319;SDS011;60269;52.502;16.732;2023-11-19T12:50:54;27.52;;;10.90;;
72319;SDS011;60269;52.502;16.732;2023-11-19T12:54:34;25.83;;;9.90;;
72319;SDS011;60269;52.502;16.732;2023-11-19T12:58:07;29.83;;;10.80;;
72319;SDS011;60269;52.502;16.732;2023-11-19T13:01:39;25.52;;;10.43;;
72319;SDS011;60269;52.502;16.732;2023-11-19T13:05:26;24.70;;;9.77;;
72319;SDS011;60269;52.502;16.732;2023-11-19T13:09:04;24.20;;;10.40;;
72319;SDS011;60269;52.502;16.732;2023-11-19T13:12:36;25.43;;;9.87;;
72319;SDS011;60269;52.502;16.732;2023-11-19T13:16:08;27.17;;;9.88;;
72319;SDS011;60269;52.502;16.732;2023-11-19T13:19:40;29.10;;;11.00;;
72319;SDS011;60269;52.502;16.732;2023-11-19T13:23:13;28.13;;;10.47;;
72319;SDS011;60269;52.502;16.732;2023-11-19T13:26:48;26.45;;;10.18;;
72319;SDS011;60269;52.502;16.732;2023-11-19T13:30:20;27.58;;;10.60;;
72319;SDS011;60269;52.502;16.732;2023-11-19T13:33:58;27.33;;;10.03;;
72319;SDS011;60269;52.502;16.732;2023-11-19T13:37:31;29.20;;;10.20;;
72319;SDS011;60269;52.502;16.732;2023-11-19T13:41:03;28.25;;;11.10;;
72319;SDS011;60269;52.502;16.732;2023-11-19T13:44:36;23.17;;;9.63;;
72319;SDS011;60269;52.502;16.732;2023-11-19T13:48:08;29.53;;;11.33;;
72319;SDS011;60269;52.502;16.732;2023-11-19T13:51:41;37.53;;;13.30;;
72319;SDS011;60269;52.502;16.732;2023-11-19T13:55:13;35.25;;;13.05;;
72319;SDS011;60269;52.502;16.732;2023-11-19T13:58:45;30.80;;;11.70;;
72319;SDS011;60269;52.502;16.732;2023-11-19T14:02:17;32.90;;;12.25;;
72319;SDS011;60269;52.502;16.732;2023-11-19T14:05:50;33.22;;;12.57;;
72319;SDS011;60269;52.502;16.732;2023-11-19T14:09:24;32.97;;;12.93;;
72319;SDS011;60269;52.502;16.732;2023-11-19T14:12:55;30.45;;;11.57;;
72319;SDS011;60269;52.502;16.732;2023-11-19T14:16:27;30.10;;;12.13;;
72319;SDS011;60269;52.502;16.732;2023-11-19T14:20:00;35.35;;;12.52;;
72319;SDS011;60269;52.502;16.732;2023-11-19T14:23:32;33.03;;;12.30;;
72319;SDS011;60269;52.502;16.732;2023-11-19T14:27:04;28.17;;;11.20;;
72319;SDS011;60269;52.502;16.732;2023-11-19T14:30:37;32.47;;;11.82;;
72319;SDS011;60269;52.502;16.732;2023-11-19T14:34:11;32.00;;;10.93;;
72319;SDS011;60269;52.502;16.732;2023-11-19T14:37:43;30.52;;;12.85;;
72319;SDS011;60269;52.502;16.732;2023-11-19T14:41:16;36.00;;;12.43;;
72319;SDS011;60269;52.502;16.732;2023-11-19T14:44:48;33.20;;;12.33;;
72319;SDS011;60269;52.502;16.732;2023-11-19T14:48:20;38.53;;;13.43;;
72319;SDS011;60269;52.502;16.732;2023-11-19T14:51:52;38.53;;;14.13;;
72319;SDS011;60269;52.502;16.732;2023-11-19T14:55:24;36.15;;;14.20;;
72319;SDS011;60269;52.502;16.732;2023-11-19T14:58:56;40.60;;;14.23;;
72319;SDS011;60269;52.502;16.732;2023-11-19T15:02:28;36.65;;;15.38;;
72319;SDS011;60269;52.502;16.732;2023-11-19T15:06:00;41.60;;;16.15;;
72319;SDS011;60269;52.502;16.732;2023-11-19T15:09:33;45.57;;;15.37;;
72319;SDS011;60269;52.502;16.732;2023-11-19T15:13:05;41.92;;;14.82;;
72319;SDS011;60269;52.502;16.732;2023-11-19T15:16:37;49.83;;;16.60;;
72319;SDS011;60269;52.502;16.732;2023-11-19T15:20:09;44.83;;;16.43;;
72319;SDS011;60269;52.502;16.732;2023-11-19T15:23:42;51.47;;;16.67;;
72319;SDS011;60269;52.502;16.732;2023-11-19T15:27:14;49.38;;;16.60;;
72319;SDS011;60269;52.502;16.732;2023-11-19T15:30:46;58.70;;;19.92;;
72319;SDS011;60269;52.502;16.732;2023-11-19T15:34:19;56.40;;;20.87;;
72319;SDS011;60269;52.502;16.732;2023-11-19T15:37:51;57.45;;;19.85;;
72319;SDS011;60269;52.502;16.732;2023-11-19T15:41:24;51.85;;;17.85;;
72319;SDS011;60269;52.502;16.732;2023-11-19T15:44:56;53.87;;;18.80;;
72319;SDS011;60269;52.502;16.732;2023-11-19T15:48:28;50.80;;;17.63;;
72319;SDS011;60269;52.502;16.732;2023-11-19T15:51:59;80.75;;;21.50;;
72319;SDS011;60269;52.502;16.732;2023-11-19T15:55:32;56.30;;;18.40;;
72319;SDS011;60269;52.502;16.732;2023-11-19T15:59:03;67.97;;;20.05;;
72319;SDS011;60269;52.502;16.732;2023-11-19T16:02:40;75.07;;;20.67;;
72319;SDS011;60269;52.502;16.732;2023-11-19T16:06:12;62.25;;;19.55;;
72319;SDS011;60269;52.502;16.732;2023-11-19T16:09:44;62.37;;;19.33;;
72319;SDS011;60269;52.502;16.732;2023-11-19T16:13:16;80.47;;;22.25;;
72319;SDS011;60269;52.502;16.732;2023-11-19T16:16:48;58.70;;;20.63;;
72319;SDS011;60269;52.502;16.732;2023-11-19T16:20:20;72.63;;;19.93;;
72319;SDS011;60269;52.502;16.732;2023-11-19T16:23:52;62.88;;;18.30;;
72319;SDS011;60269;52.502;16.732;2023-11-19T16:27:24;71.68;;;18.65;;
72319;SDS011;60269;52.502;16.732;2023-11-19T16:31:00;49.73;;;17.77;;
72319;SDS011;60269;52.502;16.732;2023-11-19T16:34:32;42.35;;;17.02;;
72319;SDS011;60269;52.502;16.732;2023-11-19T16:38:09;45.88;;;17.52;;
72319;SDS011;60269;52.502;16.732;2023-11-19T16:41:41;44.40;;;15.70;;
72319;SDS011;60269;52.502;16.732;2023-11-19T16:45:14;35.00;;;14.60;;
72319;SDS011;60269;52.502;16.732;2023-11-19T16:48:47;34.22;;;15.35;;
72319;SDS011;60269;52.502;16.732;2023-11-19T16:52:22;35.05;;;16.10;;
72319;SDS011;60269;52.502;16.732;2023-11-19T16:55:54;41.27;;;15.00;;
72319;SDS011;60269;52.502;16.732;2023-11-19T16:59:25;39.10;;;16.65;;
72319;SDS011;60269;52.502;16.732;2023-11-19T17:02:58;31.73;;;13.00;;
72319;SDS011;60269;52.502;16.732;2023-11-19T17:06:37;33.60;;;13.87;;
72319;SDS011;60269;52.502;16.732;2023-11-19T17:10:09;33.67;;;12.68;;
72319;SDS011;60269;52.502;16.732;2023-11-19T17:13:42;33.90;;;11.32;;
72319;SDS011;60269;52.502;16.732;2023-11-19T17:17:14;24.50;;;10.70;;
72319;SDS011;60269;52.502;16.732;2023-11-19T17:20:46;24.57;;;9.57;;
72319;SDS011;60269;52.502;16.732;2023-11-19T17:24:18;24.05;;;8.77;;
72319;SDS011;60269;52.502;16.732;2023-11-19T17:27:51;19.70;;;8.27;;
72319;SDS011;60269;52.502;16.732;2023-11-19T17:31:23;23.97;;;7.53;;
72319;SDS011;60269;52.502;16.732;2023-11-19T17:34:55;22.17;;;7.43;;
72319;SDS011;60269;52.502;16.732;2023-11-19T17:38:27;17.35;;;6.43;;
72319;SDS011;60269;52.502;16.732;2023-11-19T17:41:59;23.53;;;7.00;;
72319;SDS011;60269;52.502;16.732;2023-11-19T17:45:31;15.77;;;5.38;;
72319;SDS011;60269;52.502;16.732;2023-11-19T17:49:03;23.88;;;5.13;;
72319;SDS011;60269;52.502;16.732;2023-11-19T17:52:35;17.48;;;5.53;;
72319;SDS011;60269;52.502;16.732;2023-11-19T17:56:07;15.33;;;4.90;;
72319;SDS011;60269;52.502;16.732;2023-11-19T17:59:40;15.60;;;4.80;;
72319;SDS011;60269;52.502;16.732;2023-11-19T18:03:13;17.70;;;4.50;;
72319;SDS011;60269;52.502;16.732;2023-11-19T18:06:46;17.07;;;4.20;;
72319;SDS011;60269;52.502;16.732;2023-11-19T18:10:18;23.75;;;4.97;;
72319;SDS011;60269;52.502;16.732;2023-11-19T18:13:50;23.20;;;6.07;;
72319;SDS011;60269;52.502;16.732;2023-11-19T18:17:22;19.53;;;5.43;;
72319;SDS011;60269;52.502;16.732;2023-11-19T18:20:54;16.45;;;3.97;;
72319;SDS011;60269;52.502;16.732;2023-11-19T18:24:26;18.15;;;3.42;;
72319;SDS011;60269;52.502;16.732;2023-11-19T18:27:57;22.15;;;4.47;;
72319;SDS011;60269;52.502;16.732;2023-11-19T18:31:30;18.37;;;3.33;;
72319;SDS011;60269;52.502;16.732;2023-11-19T18:35:02;19.80;;;3.47;;
72319;SDS011;60269;52.502;16.732;2023-11-19T18:38:37;20.95;;;5.05;;
72319;SDS011;60269;52.502;16.732;2023-11-19T18:42:14;18.47;;;3.93;;
72319;SDS011;60269;52.502;16.732;2023-11-19T18:45:46;14.55;;;3.72;;
72319;SDS011;60269;52.502;16.732;2023-11-19T18:49:18;12.95;;;3.15;;
72319;SDS011;60269;52.502;16.732;2023-11-19T18:52:50;20.07;;;3.67;;
72319;SDS011;60269;52.502;16.732;2023-11-19T18:56:22;15.38;;;2.70;;
72319;SDS011;60269;52.502;16.732;2023-11-19T18:59:54;20.75;;;3.90;;
72319;SDS011;60269;52.502;16.732;2023-11-19T19:03:27;20.40;;;4.10;;
72319;SDS011;60269;52.502;16.732;2023-11-19T19:07:02;20.53;;;2.93;;
72319;SDS011;60269;52.502;16.732;2023-11-19T19:10:37;14.10;;;4.25;;
72319;SDS011;60269;52.502;16.732;2023-11-19T19:14:10;17.90;;;4.18;;
72319;SDS011;60269;52.502;16.732;2023-11-19T19:17:43;21.50;;;3.87;;
72319;SDS011;60269;52.502;16.732;2023-11-19T19:21:16;18.85;;;4.03;;
72319;SDS011;60269;52.502;16.732;2023-11-19T19:24:48;16.42;;;2.95;;
72319;SDS011;60269;52.502;16.732;2023-11-19T19:28:21;26.97;;;3.87;;
72319;SDS011;60269;52.502;16.732;2023-11-19T19:31:54;18.05;;;3.33;;
72319;SDS011;60269;52.502;16.732;2023-11-19T19:35:27;23.70;;;3.17;;
72319;SDS011;60269;52.502;16.732;2023-11-19T19:39:01;18.80;;;3.28;;
72319;SDS011;60269;52.502;16.732;2023-11-19T19:42:35;17.67;;;3.13;;
72319;SDS011;60269;52.502;16.732;2023-11-19T19:46:07;16.50;;;3.13;;
72319;SDS011;60269;52.502;16.732;2023-11-19T19:49:42;24.55;;;3.17;;
72319;SDS011;60269;52.502;16.732;2023-11-19T19:53:14;21.90;;;4.27;;
72319;SDS011;60269;52.502;16.732;2023-11-19T19:56:46;16.70;;;2.78;;
72319;SDS011;60269;52.502;16.732;2023-11-19T20:00:18;21.65;;;3.42;;
72319;SDS011;60269;52.502;16.732;2023-11-19T20:03:53;15.47;;;2.87;;
72319;SDS011;60269;52.502;16.732;2023-11-19T20:07:25;20.92;;;3.22;;
72319;SDS011;60269;52.502;16.732;2023-11-19T20:10:58;16.42;;;3.20;;
72319;SDS011;60269;52.502;16.732;2023-11-19T20:14:29;17.63;;;3.17;;
72319;SDS011;60269;52.502;16.732;2023-11-19T20:18:01;13.87;;;3.83;;
72319;SDS011;60269;52.502;16.732;2023-11-19T20:21:33;21.60;;;4.00;;
72319;SDS011;60269;52.502;16.732;2023-11-19T20:25:07;22.48;;;4.72;;
72319;SDS011;60269;52.502;16.732;2023-11-19T20:28:40;15.17;;;3.03;;
72319;SDS011;60269;52.502;16.732;2023-11-19T20:32:12;19.52;;;4.15;;
72319;SDS011;60269;52.502;16.732;2023-11-19T20:35:44;19.90;;;3.63;;
72319;SDS011;60269;52.502;16.732;2023-11-19T20:39:17;21.70;;;4.00;;
72319;SDS011;60269;52.502;16.732;2023-11-19T20:42:50;19.67;;;4.00;;
72319;SDS011;60269;52.502;16.732;2023-11-19T20:46:23;16.88;;;3.50;;
72319;SDS011;60269;52.502;16.732;2023-11-19T20:49:55;17.45;;;4.35;;